createdAt,value
2018-07-16T00:00:41.618Z,98017.72
2018-07-16T00:03:11.531Z,98019.73
2018-07-16T00:05:46.894Z,98016.40
2018-07-16T00:08:16.332Z,98017.72
2018-07-16T00:10:45.414Z,98020.05
2018-07-16T00:13:14.486Z,98018.61
2018-07-16T00:15:43.590Z,98016.94
2018-07-16T00:18:12.649Z,98011.59
2018-07-16T00:20:41.734Z,98010.78
2018-07-16T00:23:10.846Z,98009.53
2018-07-16T00:25:39.923Z,98014.84
2018-07-16T00:28:09.012Z,98012.78
2018-07-16T00:30:38.961Z,98014.30
2018-07-16T00:33:08.787Z,98013.20
2018-07-16T00:35:38.155Z,98016.33
2018-07-16T00:38:07.279Z,98010.05
2018-07-16T00:40:36.398Z,98017.08
2018-07-16T00:43:06.090Z,98011.01
2018-07-16T00:45:35.198Z,98013.14
2018-07-16T00:48:04.307Z,98007.59
2018-07-16T00:50:33.427Z,98007.78
2018-07-16T00:53:02.530Z,98005.43
2018-07-16T00:55:31.666Z,98006.61
2018-07-16T00:58:00.772Z,98007.39
2018-07-16T01:00:29.850Z,98008.46
2018-07-16T01:02:58.974Z,98003.05
2018-07-16T01:05:28.166Z,98006.09
2018-07-16T01:07:57.264Z,98008.39
2018-07-16T01:10:26.362Z,98004.81
2018-07-16T01:12:55.446Z,98007.02
2018-07-16T01:15:24.554Z,98005.91
2018-07-16T01:17:53.715Z,98004.87
2018-07-16T01:20:22.850Z,98006.30
2018-07-16T01:22:52.659Z,98005.05
2018-07-16T01:25:21.815Z,98001.66
2018-07-16T01:27:51.623Z,98001.44
2018-07-16T01:30:20.714Z,98003.72
2018-07-16T01:32:49.875Z,98000.37
2018-07-16T01:35:19.706Z,98001.56
2018-07-16T01:37:48.786Z,97999.97
2018-07-16T01:40:17.918Z,97997.66
2018-07-16T01:42:47.030Z,97999.28
2018-07-16T01:45:16.093Z,98006.80
2018-07-16T01:47:45.214Z,98007.02
2018-07-16T01:50:14.283Z,98006.29
2018-07-16T01:52:43.382Z,98005.35
2018-07-16T01:55:12.490Z,98010.45
2018-07-16T01:57:41.590Z,98015.70
2018-07-16T02:00:13.026Z,98004.63
2018-07-16T02:02:43.659Z,98008.83
2018-07-16T02:05:15.470Z,98009.42
2018-07-16T02:07:45.239Z,98007.45
2018-07-16T02:10:17.398Z,98011.55
2018-07-16T02:12:47.696Z,98006.41
2018-07-16T02:15:19.260Z,98014.72
2018-07-16T02:17:50.827Z,98006.58
2018-07-16T02:20:20.728Z,98007.53
2018-07-16T02:22:50.987Z,98010.93
2018-07-16T02:25:20.090Z,98010.67
2018-07-16T02:27:49.170Z,98020.88
2018-07-16T02:30:18.275Z,98014.69
2018-07-16T02:32:47.919Z,98020.42
2018-07-16T02:35:16.719Z,98016.45
2018-07-16T02:37:45.963Z,98006.92
2018-07-16T02:40:15.316Z,98018.06
2018-07-16T02:42:44.440Z,98019.25
2018-07-16T02:45:13.503Z,98016.63
2018-07-16T02:47:42.580Z,98011.80
2018-07-16T02:50:11.819Z,98019.97
2018-07-16T02:52:41.326Z,98019.39
2018-07-16T02:55:10.647Z,98013.84
2018-07-16T02:57:39.815Z,98019.75
2018-07-16T03:00:09.891Z,98021.70
2018-07-16T03:02:39.886Z,98023.98
2018-07-16T03:05:14.739Z,98017.16
2018-07-16T03:07:44.216Z,98023.86
2018-07-16T03:10:13.463Z,98020.25
2018-07-16T03:12:43.673Z,98022.57
2018-07-16T03:15:13.545Z,98023.17
2018-07-16T03:17:42.670Z,98017.20
2018-07-16T03:20:11.728Z,98018.19
2018-07-16T03:22:40.841Z,98020.37
2018-07-16T03:25:09.975Z,98023.94
2018-07-16T03:27:39.056Z,98020.80
2018-07-16T03:30:08.183Z,98017.92
2018-07-16T03:32:37.242Z,98019.88
2018-07-16T03:35:06.298Z,98012.64
2018-07-16T03:37:35.438Z,98012.16
2018-07-16T03:40:04.972Z,98015.22
2018-07-16T03:42:34.091Z,98010.78
2018-07-16T03:45:03.443Z,98014.64
2018-07-16T03:47:32.650Z,98010.93
2018-07-16T03:50:01.780Z,98007.97
2018-07-16T03:52:31.350Z,98008.73
2018-07-16T03:55:01.369Z,98007.16
2018-07-16T03:57:30.706Z,98001.86
2018-07-16T04:00:00.275Z,98006.42
2018-07-16T04:02:29.475Z,98008.82
2018-07-16T04:04:59.307Z,98006.92
2018-07-16T04:07:29.034Z,98008.73
2018-07-16T04:09:59.086Z,98011.40
2018-07-16T04:12:28.570Z,98015.09
2018-07-16T04:14:57.673Z,98014.10
2018-07-16T04:17:26.794Z,98009.17
2018-07-16T04:19:55.962Z,98007.07
2018-07-16T04:22:25.159Z,98010.75
2018-07-16T04:24:54.415Z,98002.50
2018-07-16T04:27:23.554Z,98008.94
2018-07-16T04:29:52.626Z,98013.02
2018-07-16T04:32:21.711Z,98001.20
2018-07-16T04:34:51.800Z,98008.16
2018-07-16T04:37:21.571Z,98006.44
2018-07-16T04:39:51.595Z,98001.91
2018-07-16T04:42:21.045Z,97998.04
2018-07-16T04:44:50.143Z,97995.68
2018-07-16T04:47:19.223Z,97997.77
2018-07-16T04:49:48.338Z,97998.46
2018-07-16T04:52:17.399Z,98006.53
2018-07-16T04:54:46.475Z,98005.14
2018-07-16T04:57:16.303Z,98003.14
2018-07-16T04:59:45.394Z,98004.43
2018-07-16T05:02:14.627Z,98004.58
2018-07-16T05:04:43.944Z,98006.39
2018-07-16T05:07:13.378Z,98006.88
2018-07-16T05:09:42.565Z,98004.19
2018-07-16T05:12:11.655Z,98001.58
2018-07-16T05:14:40.775Z,97993.34
2018-07-16T05:17:09.847Z,98003.41
2018-07-16T05:19:38.957Z,98002.60
2018-07-16T05:22:08.079Z,98001.33
2018-07-16T05:24:37.181Z,98007.39
2018-07-16T05:27:06.496Z,98006.72
2018-07-16T05:29:35.594Z,98004.16
2018-07-16T05:32:04.740Z,97996.37
2018-07-16T05:34:34.287Z,97998.23
2018-07-16T05:37:03.698Z,97994.30
2018-07-16T05:39:32.821Z,97998.09
2018-07-16T05:42:01.995Z,98000.28
2018-07-16T05:44:31.115Z,98001.12
2018-07-16T05:47:00.547Z,97995.77
2018-07-16T05:49:29.639Z,98000.94
2018-07-16T05:51:58.776Z,97999.19
2018-07-16T05:54:27.870Z,97993.58
2018-07-16T05:56:56.963Z,97992.50
2018-07-16T05:59:26.055Z,97991.25
2018-07-16T06:01:55.123Z,97992.31
2018-07-16T06:04:24.234Z,97988.59
2018-07-16T06:06:53.343Z,97988.70
2018-07-16T06:09:22.398Z,97988.16
2018-07-16T06:11:51.663Z,97985.75
2018-07-16T06:14:20.741Z,97986.50
2018-07-16T06:16:49.844Z,97984.35
2018-07-16T06:19:18.911Z,97992.19
2018-07-16T06:21:47.992Z,97989.36
2018-07-16T06:24:17.058Z,97986.41
2018-07-16T06:26:46.168Z,97983.69
2018-07-16T06:29:15.239Z,97994.89
2018-07-16T06:31:44.296Z,97990.22
2018-07-16T06:34:13.403Z,97991.81
2018-07-16T06:36:43.191Z,97991.12
2018-07-16T06:39:12.315Z,97993.16
2018-07-16T06:41:41.475Z,97986.83
2018-07-16T06:44:10.687Z,97987.80
2018-07-16T06:46:39.750Z,97990.72
2018-07-16T06:49:08.842Z,97985.52
2018-07-16T06:51:37.939Z,97982.66
2018-07-16T06:54:07.667Z,97979.46
2018-07-16T06:56:36.939Z,97981.77
2018-07-16T06:59:06.070Z,97981.67
2018-07-16T07:01:35.187Z,97979.51
2018-07-16T07:04:04.259Z,97984.91
2018-07-16T07:06:33.319Z,97981.05
2018-07-16T07:09:02.414Z,97984.82
2018-07-16T07:11:31.535Z,97980.09
2018-07-16T07:14:00.643Z,97977.26
2018-07-16T07:16:29.711Z,97973.80
2018-07-16T07:18:58.776Z,97967.41
2018-07-16T07:21:27.557Z,97973.63
2018-07-16T07:23:56.891Z,97969.80
2018-07-16T07:26:25.623Z,97962.67
2018-07-16T07:28:54.737Z,97963.31
2018-07-16T07:31:23.823Z,97968.88
2018-07-16T07:33:52.927Z,97967.20
2018-07-16T07:36:22.004Z,97972.08
2018-07-16T07:38:51.243Z,97969.88
2018-07-16T07:41:20.687Z,97968.78
2018-07-16T07:43:50.246Z,97958.65
2018-07-16T07:46:18.935Z,97956.38
2018-07-16T07:48:48.055Z,97956.99
2018-07-16T07:51:17.190Z,97953.33
2018-07-16T07:53:46.091Z,97955.55
2018-07-16T07:56:15.230Z,97955.66
2018-07-16T07:58:44.311Z,97955.12
2018-07-16T08:01:13.418Z,97950.84
2018-07-16T08:03:42.495Z,97949.14
2018-07-16T08:06:11.550Z,97948.16
2018-07-16T08:08:40.637Z,97951.11
2018-07-16T08:11:09.742Z,97942.22
2018-07-16T08:13:38.852Z,97941.70
2018-07-16T08:16:07.935Z,97938.61
2018-07-16T08:18:37.016Z,97943.87
2018-07-16T08:21:06.191Z,97941.52
2018-07-16T08:23:35.238Z,97936.94
2018-07-16T08:26:04.302Z,97936.51
2018-07-16T08:28:33.413Z,97930.84
2018-07-16T08:31:02.718Z,97933.73
2018-07-16T08:33:32.097Z,97933.00
2018-07-16T08:36:01.127Z,97928.31
2018-07-16T08:38:29.742Z,97936.94
2018-07-16T08:40:58.463Z,97932.77
2018-07-16T08:43:27.669Z,97932.36
2018-07-16T08:45:56.714Z,97923.11
2018-07-16T08:48:25.862Z,97923.80
2018-07-16T08:50:55.363Z,97923.80
2018-07-16T08:53:24.442Z,97929.29
2018-07-16T08:55:53.507Z,97925.70
2018-07-16T08:58:22.754Z,97921.25
2018-07-16T09:00:53.687Z,97926.14
2018-07-16T09:03:22.930Z,97919.90
2018-07-16T09:05:57.263Z,97916.93
2018-07-16T09:08:26.395Z,97921.20
2018-07-16T09:10:55.554Z,97925.27
2018-07-16T09:13:24.684Z,97925.19
2018-07-16T09:15:53.775Z,97914.43
2018-07-16T09:18:22.975Z,97913.78
2018-07-16T09:20:52.003Z,97909.95
2018-07-16T09:23:22.594Z,97912.56
2018-07-16T09:25:51.651Z,97911.88
2018-07-16T09:28:20.741Z,97906.78
2018-07-16T09:30:49.827Z,97904.51
2018-07-16T09:33:18.948Z,97906.45
2018-07-16T09:35:48.009Z,97905.67
2018-07-16T09:38:17.067Z,97902.32
2018-07-16T09:40:46.378Z,97902.69
2018-07-16T09:43:15.607Z,97905.34
2018-07-16T09:45:45.531Z,97897.60
2018-07-16T09:48:14.238Z,97898.00
2018-07-16T09:50:43.328Z,97889.75
2018-07-16T09:53:12.464Z,97893.98
2018-07-16T09:55:41.566Z,97891.91
2018-07-16T09:58:10.902Z,97900.53
2018-07-16T10:00:44.964Z,97883.59
2018-07-16T10:03:14.051Z,97883.38
2018-07-16T10:05:43.174Z,97882.84
2018-07-16T10:08:12.288Z,97882.27
2018-07-16T10:10:41.363Z,97879.38
2018-07-16T10:13:10.430Z,97880.46
2018-07-16T10:15:39.563Z,97878.45
2018-07-16T10:18:08.626Z,97883.66
2018-07-16T10:20:37.746Z,97878.18
2018-07-16T10:23:06.766Z,97865.56
2018-07-16T10:25:35.837Z,97867.34
2018-07-16T10:28:04.911Z,97864.38
2018-07-16T10:30:34.054Z,97868.93
2018-07-16T10:33:03.285Z,97863.67
2018-07-16T10:35:32.379Z,97865.39
2018-07-16T10:38:01.457Z,97857.98
2018-07-16T10:40:30.270Z,97859.71
2018-07-16T10:43:00.528Z,97864.59
2018-07-16T10:45:29.605Z,97860.31
2018-07-16T10:47:58.720Z,97860.96
2018-07-16T10:50:27.811Z,97861.77
2018-07-16T10:52:56.935Z,97868.45
2018-07-16T10:55:26.207Z,97865.02
2018-07-16T10:57:55.725Z,97856.28
2018-07-16T11:00:25.038Z,97858.05
2018-07-16T11:02:54.151Z,97866.02
2018-07-16T11:05:23.271Z,97859.64
2018-07-16T11:07:52.298Z,97863.58
2018-07-16T11:10:21.358Z,97854.60
2018-07-16T11:12:50.470Z,97852.45
2018-07-16T11:15:19.578Z,97847.28
2018-07-16T11:17:48.662Z,97843.91
2018-07-16T11:20:17.840Z,97844.16
2018-07-16T11:22:46.948Z,97839.81
2018-07-16T11:25:16.015Z,97841.61
2018-07-16T11:27:45.082Z,97843.53
2018-07-16T11:30:14.171Z,97834.80
2018-07-16T11:32:43.230Z,97831.58
2018-07-16T11:35:12.317Z,97830.77
2018-07-16T11:37:41.948Z,97827.02
2018-07-16T11:40:11.059Z,97817.95
2018-07-16T11:42:40.350Z,97817.42
2018-07-16T11:45:09.463Z,97815.34
2018-07-16T11:47:38.523Z,97806.65
2018-07-16T11:50:07.588Z,97797.61
2018-07-16T11:52:36.694Z,97792.38
2018-07-16T11:55:05.779Z,97795.46
2018-07-16T11:57:34.852Z,97794.03
2018-07-16T12:00:04.014Z,97790.89
2018-07-16T12:02:33.078Z,97783.82
2018-07-16T12:05:02.343Z,97779.98
2018-07-16T12:07:32.131Z,97778.02
2018-07-16T12:10:01.178Z,97772.66
2018-07-16T12:12:30.263Z,97774.22
2018-07-16T12:14:59.346Z,97765.80
2018-07-16T12:17:28.419Z,97780.92
2018-07-16T12:19:57.503Z,97764.67
2018-07-16T12:22:26.944Z,97770.67
2018-07-16T12:24:55.968Z,97774.33
2018-07-16T12:27:25.131Z,97773.92
2018-07-16T12:29:54.263Z,97773.38
2018-07-16T12:32:23.318Z,97767.22
2018-07-16T12:34:52.786Z,97765.35
2018-07-16T12:37:21.878Z,97763.72
2018-07-16T12:39:50.946Z,97762.92
2018-07-16T12:42:21.943Z,97748.77
2018-07-16T12:44:51.217Z,97748.38
2018-07-16T12:47:20.278Z,97749.95
2018-07-16T12:49:49.411Z,97747.53
2018-07-16T12:52:18.482Z,97749.57
2018-07-16T12:54:47.555Z,97737.55
2018-07-16T12:57:16.715Z,97732.52
2018-07-16T12:59:45.801Z,97723.73
2018-07-16T13:02:15.279Z,97724.53
2018-07-16T13:04:44.386Z,97716.09
2018-07-16T13:07:13.527Z,97713.37
2018-07-16T13:09:42.494Z,97714.71
2018-07-16T13:12:11.603Z,97715.13
2018-07-16T13:14:40.679Z,97702.22
2018-07-16T13:17:09.789Z,97699.55
2018-07-16T13:19:38.878Z,97699.97
2018-07-16T13:22:08.106Z,97701.77
2018-07-16T13:24:37.590Z,97700.63
2018-07-16T13:27:06.730Z,97699.67
2018-07-16T13:29:35.818Z,97701.59
2018-07-16T13:32:04.895Z,97703.53
2018-07-16T13:34:33.983Z,97695.83
2018-07-16T13:37:03.076Z,97693.70
2018-07-16T13:39:32.214Z,97694.02
2018-07-16T13:42:01.299Z,97700.46
2018-07-16T13:44:31.386Z,97696.30
2018-07-16T13:47:00.452Z,97694.34
2018-07-16T13:49:29.568Z,97687.19
2018-07-16T13:51:58.679Z,97693.38
2018-07-16T13:54:27.730Z,97687.88
2018-07-16T13:56:56.846Z,97684.45
2018-07-16T13:59:25.878Z,97688.20
2018-07-16T14:01:55.979Z,97686.20
2018-07-16T14:04:25.203Z,97690.61
2018-07-16T14:06:53.903Z,97684.80
2018-07-16T14:09:22.954Z,97677.80
2018-07-16T14:11:52.310Z,97675.06
2018-07-16T14:14:21.634Z,97683.66
2018-07-16T14:16:50.730Z,97681.33
2018-07-16T14:19:19.847Z,97675.77
2018-07-16T14:21:48.951Z,97665.61
2018-07-16T14:24:18.100Z,97667.58
2018-07-16T14:26:47.161Z,97662.23
2018-07-16T14:29:16.231Z,97666.67
2018-07-16T14:31:45.334Z,97663.81
2018-07-16T14:34:14.466Z,97663.11
2018-07-16T14:36:43.766Z,97665.00
2018-07-16T14:39:12.907Z,97659.17
2018-07-16T14:41:41.946Z,97651.02
2018-07-16T14:44:10.950Z,97655.73
2018-07-16T14:46:39.758Z,97648.25
2018-07-16T14:49:08.816Z,97643.73
2018-07-16T14:51:37.891Z,97649.05
2018-07-16T14:54:06.949Z,97648.09
2018-07-16T14:56:36.026Z,97643.16
2018-07-16T14:59:05.175Z,97641.16
2018-07-16T15:01:34.290Z,97636.86
2018-07-16T15:04:03.370Z,97628.17
2018-07-16T15:06:32.431Z,97634.98
2018-07-16T15:09:01.522Z,97634.53
2018-07-16T15:11:30.643Z,97642.37
2018-07-16T15:13:59.810Z,97638.66
2018-07-16T15:16:28.830Z,97648.06
2018-07-16T15:18:57.904Z,97635.99
2018-07-16T15:21:27.283Z,97637.02
2018-07-16T15:23:56.146Z,97642.23
2018-07-16T15:26:25.250Z,97646.97
2018-07-16T15:28:54.315Z,97640.42
2018-07-16T15:31:23.406Z,97641.51
2018-07-16T15:33:52.594Z,97644.09
2018-07-16T15:36:21.715Z,97633.09
2018-07-16T15:38:51.014Z,97638.95
2018-07-16T15:41:20.138Z,97636.56
2018-07-16T15:43:48.902Z,97638.11
2018-07-16T15:46:18.003Z,97630.53
2018-07-16T15:48:47.306Z,97623.12
2018-07-16T15:51:16.622Z,97621.45
2018-07-16T15:53:46.013Z,97618.62
2018-07-16T15:56:14.998Z,97623.64
2018-07-16T15:58:44.070Z,97629.05
2018-07-16T16:01:13.142Z,97627.72
2018-07-16T16:03:42.234Z,97625.81
2018-07-16T16:06:11.571Z,97623.87
2018-07-16T16:08:40.318Z,97621.94
2018-07-16T16:11:09.715Z,97628.75
2018-07-16T16:13:38.427Z,97623.55
2018-07-16T16:16:07.845Z,97616.84
2018-07-16T16:18:37.546Z,97635.40
2018-07-16T16:21:06.666Z,97627.88
2018-07-16T16:23:35.710Z,97618.81
2018-07-16T16:26:05.094Z,97621.28
2018-07-16T16:28:34.383Z,97620.33
2018-07-16T16:31:03.685Z,97619.88
2018-07-16T16:33:32.750Z,97611.22
2018-07-16T16:36:01.506Z,97611.77
2018-07-16T16:38:30.611Z,97609.00
2018-07-16T16:40:59.869Z,97612.27
2018-07-16T16:43:28.606Z,97610.64
2018-07-16T16:45:57.670Z,97604.44
2018-07-16T16:48:26.914Z,97605.97
2018-07-16T16:50:56.906Z,97606.30
2018-07-16T16:53:25.965Z,97605.33
2018-07-16T16:55:54.767Z,97608.03
2018-07-16T16:58:24.129Z,97608.19
2018-07-16T17:00:53.366Z,97608.20
2018-07-16T17:03:22.154Z,97605.94
2018-07-16T17:05:51.299Z,97604.90
2018-07-16T17:08:20.369Z,97595.89
2018-07-16T17:10:49.817Z,97599.99
2018-07-16T17:13:19.678Z,97607.31
2018-07-16T17:15:49.102Z,97611.83
2018-07-16T17:18:18.185Z,97605.28
2018-07-16T17:20:47.238Z,97603.91
2018-07-16T17:23:16.841Z,97610.93
2018-07-16T17:25:46.619Z,97617.17
2018-07-16T17:28:15.690Z,97607.42
2018-07-16T17:30:44.783Z,97611.78
2018-07-16T17:33:13.882Z,97613.84
2018-07-16T17:35:42.958Z,97620.23
2018-07-16T17:38:12.119Z,97622.77
2018-07-16T17:40:42.149Z,97622.91
2018-07-16T17:43:11.473Z,97629.40
2018-07-16T17:45:41.261Z,97623.23
2018-07-16T17:48:11.130Z,97621.89
2018-07-16T17:50:41.017Z,97625.42
2018-07-16T17:53:11.816Z,97633.39
2018-07-16T17:55:41.294Z,97630.01
2018-07-16T17:58:10.103Z,97631.58
2018-07-16T18:00:39.167Z,97640.66
2018-07-16T18:03:08.694Z,97636.52
2018-07-16T18:05:37.851Z,97634.66
2018-07-16T18:08:07.251Z,97638.27
2018-07-16T18:10:36.362Z,97638.48
2018-07-16T18:13:07.952Z,97636.41
2018-07-16T18:15:36.997Z,97638.05
2018-07-16T18:18:06.633Z,97645.50
2018-07-16T18:20:37.987Z,97641.34
2018-07-16T18:23:07.643Z,97641.97
2018-07-16T18:25:37.447Z,97647.83
2018-07-16T18:28:06.802Z,97645.19
2018-07-16T18:30:36.832Z,97649.73
2018-07-16T18:33:06.202Z,97648.42
2018-07-16T18:35:35.927Z,97653.66
2018-07-16T18:38:05.206Z,97653.20
2018-07-16T18:40:34.858Z,97662.98
2018-07-16T18:43:03.992Z,97651.50
2018-07-16T18:45:33.282Z,97664.55
2018-07-16T18:48:02.970Z,97669.42
2018-07-16T18:50:31.516Z,97672.19
2018-07-16T18:53:00.546Z,97682.23
2018-07-16T18:55:29.919Z,97686.39
2018-07-16T18:58:00.431Z,97691.72
2018-07-16T19:00:29.744Z,97699.17
2018-07-16T19:02:59.095Z,97703.16
2018-07-16T19:05:29.069Z,97705.91
2018-07-16T19:07:58.362Z,97714.59
2018-07-16T19:10:27.690Z,97706.92
2018-07-16T19:12:57.215Z,97706.66
2018-07-16T19:15:28.651Z,97709.09
2018-07-16T19:17:58.964Z,97709.51
2018-07-16T19:20:28.312Z,97709.59
2018-07-16T19:22:59.150Z,97718.19
2018-07-16T19:25:28.230Z,97718.00
2018-07-16T19:27:57.310Z,97723.31
2018-07-16T19:30:26.441Z,97729.77
2018-07-16T19:32:55.544Z,97737.13
2018-07-16T19:35:25.147Z,97742.13
2018-07-16T19:37:54.818Z,97743.75
2018-07-16T19:40:23.944Z,97746.11
2018-07-16T19:42:53.115Z,97754.39
2018-07-16T19:45:22.642Z,97750.84
2018-07-16T19:47:51.754Z,97751.16
2018-07-16T19:50:21.166Z,97754.78
2018-07-16T19:52:50.814Z,97757.65
2018-07-16T19:55:20.755Z,97756.89
2018-07-16T19:57:50.019Z,97756.39
2018-07-16T20:00:18.966Z,97755.38
2018-07-16T20:02:48.182Z,97756.92
2018-07-16T20:05:17.305Z,97759.25
2018-07-16T20:07:46.462Z,97763.16
2018-07-16T20:10:15.553Z,97771.70
2018-07-16T20:12:44.685Z,97783.09
2018-07-16T20:15:19.219Z,97779.98
2018-07-16T20:17:48.442Z,97780.50
2018-07-16T20:20:17.791Z,97783.08
2018-07-16T20:22:48.001Z,97782.81
2018-07-16T20:25:17.098Z,97783.84
2018-07-16T20:27:46.198Z,97785.13
2018-07-16T20:30:15.402Z,97781.67
2018-07-16T20:32:44.550Z,97781.09
2018-07-16T20:35:14.398Z,97783.97
2018-07-16T20:37:43.514Z,97785.53
2018-07-16T20:40:12.670Z,97782.92
2018-07-16T20:42:41.754Z,97787.27
2018-07-16T20:45:10.830Z,97786.77
2018-07-16T20:47:39.930Z,97795.27
2018-07-16T20:50:09.911Z,97794.23
2018-07-16T20:52:39.796Z,97795.76
2018-07-16T20:55:08.862Z,97791.05
2018-07-16T20:57:37.974Z,97800.80
2018-07-16T21:00:07.039Z,97796.71
2018-07-16T21:02:37.035Z,97801.80
2018-07-16T21:05:06.957Z,97800.02
2018-07-16T21:07:36.218Z,97801.77
2018-07-16T21:10:05.718Z,97796.45
2018-07-16T21:12:34.870Z,97804.84
2018-07-16T21:15:04.050Z,97803.72
2018-07-16T21:17:33.179Z,97802.62
2018-07-16T21:20:02.260Z,97809.66
2018-07-16T21:22:33.171Z,97803.66
2018-07-16T21:25:02.259Z,97799.44
2018-07-16T21:27:31.342Z,97803.17
2018-07-16T21:30:00.477Z,97809.94
2018-07-16T21:32:29.527Z,97804.01
2018-07-16T21:34:58.380Z,97808.53
2018-07-16T21:37:27.522Z,97809.59
2018-07-16T21:39:56.599Z,97813.70
2018-07-16T21:42:25.703Z,97810.53
2018-07-16T21:44:56.162Z,97807.28
2018-07-16T21:47:25.310Z,97814.09
2018-07-16T21:49:54.403Z,97814.52
2018-07-16T21:52:23.490Z,97809.06
2018-07-16T21:54:52.706Z,97803.56
2018-07-16T21:57:21.354Z,97810.75
2018-07-16T21:59:50.430Z,97809.34
2018-07-16T22:02:20.243Z,97806.71
2018-07-16T22:04:49.559Z,97809.18
2018-07-16T22:07:18.642Z,97809.43
2018-07-16T22:09:47.826Z,97809.11
2018-07-16T22:12:16.947Z,97815.33
2018-07-16T22:14:46.477Z,97816.88
2018-07-16T22:17:15.561Z,97829.79
2018-07-16T22:19:44.686Z,97829.66
2018-07-16T22:22:13.799Z,97829.40
2018-07-16T22:24:42.894Z,97829.85
2018-07-16T22:27:11.952Z,97829.69
2018-07-16T22:29:41.013Z,97832.10
2018-07-16T22:32:10.122Z,97835.97
2018-07-16T22:34:40.050Z,97841.46
2018-07-16T22:37:09.122Z,97841.23
2018-07-16T22:39:38.359Z,97844.99
2018-07-16T22:42:07.886Z,97843.30
2018-07-16T22:44:37.215Z,97841.77
2018-07-16T22:47:06.294Z,97842.90
2018-07-16T22:49:35.439Z,97844.30
2018-07-16T22:52:04.502Z,97848.16
2018-07-16T22:54:33.732Z,97856.81
2018-07-16T22:57:02.457Z,97850.85
2018-07-16T22:59:31.774Z,97845.32
2018-07-16T23:02:00.723Z,97854.92
2018-07-16T23:04:29.997Z,97857.79
2018-07-16T23:06:59.533Z,97865.41
2018-07-16T23:09:29.169Z,97867.34
2018-07-16T23:11:58.824Z,97866.53
2018-07-16T23:14:29.104Z,97867.83
2018-07-16T23:16:58.932Z,97872.20
2018-07-16T23:19:28.851Z,97873.59
2018-07-16T23:21:58.727Z,97873.41
2018-07-16T23:24:28.063Z,97877.45
2018-07-16T23:26:57.401Z,97880.67
2018-07-16T23:29:26.474Z,97881.13
2018-07-16T23:31:55.830Z,97884.58
2018-07-16T23:34:24.882Z,97883.49
2018-07-16T23:36:54.007Z,97893.06
2018-07-16T23:39:23.095Z,97889.75
2018-07-16T23:41:52.166Z,97893.98
2018-07-16T23:44:21.271Z,97896.80
2018-07-16T23:46:50.574Z,97892.45
2018-07-16T23:49:19.634Z,97893.57
2018-07-16T23:51:48.738Z,97895.13
2018-07-16T23:54:17.838Z,97894.08
2018-07-16T23:56:46.942Z,97892.91
2018-07-16T23:59:16.027Z,97896.09
